»·PEaware :: N51254 L52-L88

N51254 :: L52-L88

FLIGHT INFORMATION

Flight Status: Arrived
Operator: Privately registered:
United States
More flights under this callsign
Pilot: Hasan B. (9605)
Aircraft: CESSNA 172 SKYHAWK
(C172)
More flights by this aircraft type
Origin: L52 Oceano Co
United States
Destination: L88 New Cuyama
United States
More flights between these airports :: More routes between these airports
Route: L52 L88 DIRECT
File this flight plan on PilotEdge
Remarks:
Altitude:
(Current/Filed)
7,500ft
Speed:
(Current/Filed)
100kts
Departed: 28-Sep-18 10:02 AM
Arrived: 28-Sep-18 10:48 AM
Distance/Time
Traveled:
47nm/0:45
Distance/Time
To Go:
Arrived

Flight Plot

Page will automatically refresh every two minutes.

Flight plan parsing failed; only flown route is shown


Map Options




Map Legend


Flown Route
Filed Route
Departure Airport
Arrival Airport
Navaid (VOR, NDB)
Fix

Horizontal Profiles

Position Reports

Time Latitude Longitude Heading Altitude Ground
Speed
28-Sep-18 09:55 35.102285 -120.622521 209 17ft 0kts
28-Sep-18 09:56 35.102285 -120.622521 209 17ft 0kts
28-Sep-18 09:57 35.102285 -120.622521 209 17ft 0kts
28-Sep-18 09:58 35.102285 -120.622521 209 17ft 0kts
28-Sep-18 09:59 35.102285 -120.622521 209 17ft 0kts
28-Sep-18 10:01 35.099511 -120.619457 3 17ft 0kts
28-Sep-18 10:02 35.099511 -120.619457 2 17ft 0kts
28-Sep-18 10:03 35.099511 -120.619457 2 17ft 0kts
28-Sep-18 10:04 35.103606 -120.626040 305 219ft 73kts
28-Sep-18 10:05 35.112953 -120.626793 97 924ft 81kts
28-Sep-18 10:06 35.106601 -120.612513 96 1624ft 74kts
28-Sep-18 10:07 35.103448 -120.596145 111 2051ft 82kts
28-Sep-18 10:08 35.099809 -120.580005 98 2467ft 83kts
28-Sep-18 10:09 35.097012 -120.563038 103 2843ft 81kts
28-Sep-18 10:10 35.093357 -120.548480 107 3130ft 82kts
28-Sep-18 10:11 35.086142 -120.522541 108 3615ft 82kts
28-Sep-18 10:12 35.080808 -120.489120 83 4187ft 83kts
28-Sep-18 10:13 35.075814 -120.451413 97 4763ft 84kts
28-Sep-18 10:14 35.071298 -120.399451 105 5450ft 86kts
28-Sep-18 10:15 35.054623 -120.350667 115 6136ft 87kts
28-Sep-18 10:16 35.046937 -120.312915 93 6724ft 88kts
28-Sep-18 10:17 35.036079 -120.269189 114 7298ft 90kts
28-Sep-18 10:18 35.032968 -120.248153 90 7561ft 99kts
28-Sep-18 10:19 35.032793 -120.237115 92 7593ft 99kts
28-Sep-18 10:20 35.031944 -120.222219 95 7594ft 100kts
28-Sep-18 10:21 35.025884 -120.156453 94 7433ft 102kts
28-Sep-18 10:22 35.018460 -120.077184 104 7615ft 97kts
28-Sep-18 10:23 34.999632 -119.992590 103 7259ft 103kts
28-Sep-18 10:24 34.988406 -119.945995 109 7453ft 93kts
28-Sep-18 10:25 34.985358 -119.935880 108 7286ft 89kts
28-Sep-18 10:26 34.982596 -119.925304 114 7048ft 90kts
28-Sep-18 10:27 34.979810 -119.914909 104 6775ft 92kts
28-Sep-18 10:28 34.976397 -119.898231 103 6227ft 97kts
28-Sep-18 10:29 34.974320 -119.882550 94 5758ft 94kts
28-Sep-18 10:30 34.973112 -119.871297 103 5389ft 95kts
28-Sep-18 10:31 34.968898 -119.861138 131 5051ft 92kts
28-Sep-18 10:32 34.965001 -119.851681 88 4604ft 101kts
28-Sep-18 10:33 34.964572 -119.840270 93 4386ft 92kts
28-Sep-18 10:34 34.963425 -119.829023 98 4155ft 98kts
28-Sep-18 10:35 34.962137 -119.817281 99 3979ft 94kts
28-Sep-18 10:36 34.960266 -119.805752 102 3762ft 97kts
28-Sep-18 10:37 34.957651 -119.792545 103 3532ft 95kts
28-Sep-18 10:38 34.954309 -119.769079 102 3223ft 90kts
28-Sep-18 10:39 34.952057 -119.758168 105 3205ft 102kts
28-Sep-18 10:40 34.948606 -119.747843 113 3213ft 99kts
28-Sep-18 10:41 34.939026 -119.721722 114 3113ft 101kts
28-Sep-18 10:42 34.933444 -119.700221 101 3169ft 95kts
28-Sep-18 10:43 34.928030 -119.682894 114 3106ft 98kts
28-Sep-18 10:44 34.924039 -119.672823 96 3158ft 63kts
28-Sep-18 10:45 34.926863 -119.665918 25 2957ft 70kts
28-Sep-18 10:46 34.932963 -119.668594 302 2662ft 80kts
28-Sep-18 10:47 34.936077 -119.676018 295 2339ft 68kts
28-Sep-18 10:48 34.939036 -119.683232 295 2188ft 52kts
28-Sep-18 10:49 34.941430 -119.689234 294 2161ft 57kts
28-Sep-18 10:50 34.942866 -119.691054 22 2155ft 7kts
28-Sep-18 10:51 34.942909 -119.691024 59 2155ft 0kts
28-Sep-18 10:52 34.942909 -119.691024 59 2155ft 0kts
28-Sep-18 10:53 34.942909 -119.691024 59 2155ft 0kts
28-Sep-18 10:54 34.942909 -119.691024 59 2155ft 0kts

Navigation Log

Ident Type
Flight plan parsing failed, navigation log unavailable